sensor_id;sensor_type;location;lat;lon;timestamp;P1;durP1;ratioP1;P2;durP2;ratioP2
74487;SDS011;63019;51.080;13.642;2022-11-15T00:00:18;37.17;;;18.90;;
74487;SDS011;63019;51.080;13.642;2022-11-15T00:01:20;41.83;;;18.27;;
74487;SDS011;63019;51.080;13.642;2022-11-15T00:02:22;35.15;;;18.02;;
74487;SDS011;63019;51.080;13.642;2022-11-15T00:03:24;33.22;;;17.73;;
74487;SDS011;63019;51.080;13.642;2022-11-15T00:04:28;42.45;;;18.50;;
74487;SDS011;63019;51.080;13.642;2022-11-15T00:05:29;38.92;;;18.05;;
74487;SDS011;63019;51.080;13.642;2022-11-15T00:06:36;36.75;;;17.88;;
74487;SDS011;63019;51.080;13.642;2022-11-15T00:07:38;38.33;;;17.63;;
74487;SDS011;63019;51.080;13.642;2022-11-15T00:08:59;36.70;;;17.60;;
74487;SDS011;63019;51.080;13.642;2022-11-15T00:10:01;36.72;;;18.88;;
74487;SDS011;63019;51.080;13.642;2022-11-15T00:11:03;38.03;;;19.63;;
74487;SDS011;63019;51.080;13.642;2022-11-15T00:12:05;39.07;;;17.80;;
74487;SDS011;63019;51.080;13.642;2022-11-15T00:13:07;42.35;;;18.38;;
74487;SDS011;63019;51.080;13.642;2022-11-15T00:14:10;37.97;;;18.45;;
74487;SDS011;63019;51.080;13.642;2022-11-15T00:15:12;38.35;;;17.05;;
74487;SDS011;63019;51.080;13.642;2022-11-15T00:16:14;36.75;;;18.15;;
74487;SDS011;63019;51.080;13.642;2022-11-15T00:17:16;35.90;;;17.92;;
74487;SDS011;63019;51.080;13.642;2022-11-15T00:18:18;40.58;;;18.90;;
74487;SDS011;63019;51.080;13.642;2022-11-15T00:19:20;37.65;;;17.83;;
74487;SDS011;63019;51.080;13.642;2022-11-15T00:20:22;38.97;;;19.05;;
74487;SDS011;63019;51.080;13.642;2022-11-15T00:21:23;40.77;;;17.90;;
74487;SDS011;63019;51.080;13.642;2022-11-15T00:22:31;38.40;;;19.00;;
74487;SDS011;63019;51.080;13.642;2022-11-15T00:23:34;38.35;;;18.83;;
74487;SDS011;63019;51.080;13.642;2022-11-15T00:24:36;36.72;;;18.50;;
74487;SDS011;63019;51.080;13.642;2022-11-15T00:27:32;40.97;;;18.13;;
74487;SDS011;63019;51.080;13.642;2022-11-15T00:28:34;38.17;;;18.00;;
74487;SDS011;63019;51.080;13.642;2022-11-15T00:29:36;37.55;;;19.35;;
74487;SDS011;63019;51.080;13.642;2022-11-15T00:30:39;33.90;;;18.40;;
74487;SDS011;63019;51.080;13.642;2022-11-15T00:31:41;41.83;;;19.75;;
74487;SDS011;63019;51.080;13.642;2022-11-15T00:32:43;38.07;;;19.80;;
74487;SDS011;63019;51.080;13.642;2022-11-15T00:33:44;34.77;;;18.70;;
74487;SDS011;63019;51.080;13.642;2022-11-15T00:34:46;36.55;;;18.55;;
74487;SDS011;63019;51.080;13.642;2022-11-15T00:35:48;40.85;;;19.88;;
74487;SDS011;63019;51.080;13.642;2022-11-15T00:36:50;41.08;;;20.08;;
74487;SDS011;63019;51.080;13.642;2022-11-15T00:37:52;37.55;;;19.15;;
74487;SDS011;63019;51.080;13.642;2022-11-15T00:38:53;39.25;;;19.20;;
74487;SDS011;63019;51.080;13.642;2022-11-15T00:39:55;40.20;;;20.05;;
74487;SDS011;63019;51.080;13.642;2022-11-15T00:40:57;41.05;;;19.60;;
74487;SDS011;63019;51.080;13.642;2022-11-15T00:41:59;39.65;;;19.08;;
74487;SDS011;63019;51.080;13.642;2022-11-15T00:43:00;41.33;;;19.40;;
74487;SDS011;63019;51.080;13.642;2022-11-15T00:44:02;37.93;;;18.90;;
74487;SDS011;63019;51.080;13.642;2022-11-15T00:45:04;38.20;;;18.70;;
74487;SDS011;63019;51.080;13.642;2022-11-15T00:46:06;36.92;;;19.02;;
74487;SDS011;63019;51.080;13.642;2022-11-15T00:47:10;40.72;;;19.77;;
74487;SDS011;63019;51.080;13.642;2022-11-15T00:48:12;40.78;;;19.17;;
74487;SDS011;63019;51.080;13.642;2022-11-15T00:49:14;39.83;;;19.00;;
74487;SDS011;63019;51.080;13.642;2022-11-15T00:50:16;35.78;;;19.05;;
74487;SDS011;63019;51.080;13.642;2022-11-15T00:51:17;41.70;;;19.70;;
74487;SDS011;63019;51.080;13.642;2022-11-15T00:52:19;38.25;;;19.48;;
74487;SDS011;63019;51.080;13.642;2022-11-15T00:53:21;42.07;;;19.43;;
74487;SDS011;63019;51.080;13.642;2022-11-15T00:54:23;38.30;;;18.70;;
74487;SDS011;63019;51.080;13.642;2022-11-15T00:55:25;38.88;;;18.55;;
74487;SDS011;63019;51.080;13.642;2022-11-15T00:56:27;36.28;;;18.60;;
74487;SDS011;63019;51.080;13.642;2022-11-15T00:57:28;41.22;;;18.85;;
74487;SDS011;63019;51.080;13.642;2022-11-15T00:58:30;40.05;;;19.25;;
74487;SDS011;63019;51.080;13.642;2022-11-15T00:59:32;36.60;;;19.50;;
74487;SDS011;63019;51.080;13.642;2022-11-15T01:00:34;33.47;;;17.55;;
74487;SDS011;63019;51.080;13.642;2022-11-15T01:01:35;44.55;;;18.98;;
74487;SDS011;63019;51.080;13.642;2022-11-15T01:02:37;38.67;;;18.90;;
74487;SDS011;63019;51.080;13.642;2022-11-15T01:03:40;40.27;;;19.50;;
74487;SDS011;63019;51.080;13.642;2022-11-15T01:04:42;39.77;;;20.10;;
74487;SDS011;63019;51.080;13.642;2022-11-15T01:05:43;39.03;;;19.63;;
74487;SDS011;63019;51.080;13.642;2022-11-15T01:06:45;40.13;;;20.25;;
74487;SDS011;63019;51.080;13.642;2022-11-15T01:07:50;40.42;;;20.13;;
74487;SDS011;63019;51.080;13.642;2022-11-15T01:08:58;48.80;;;20.08;;
74487;SDS011;63019;51.080;13.642;2022-11-15T01:10:00;45.47;;;20.95;;
74487;SDS011;63019;51.080;13.642;2022-11-15T01:11:03;51.13;;;21.95;;
74487;SDS011;63019;51.080;13.642;2022-11-15T01:12:06;49.58;;;21.67;;
74487;SDS011;63019;51.080;13.642;2022-11-15T01:13:08;46.72;;;21.83;;
74487;SDS011;63019;51.080;13.642;2022-11-15T01:14:10;47.90;;;22.40;;
74487;SDS011;63019;51.080;13.642;2022-11-15T01:15:11;47.87;;;22.97;;
74487;SDS011;63019;51.080;13.642;2022-11-15T01:16:14;44.58;;;21.05;;
74487;SDS011;63019;51.080;13.642;2022-11-15T01:17:20;46.88;;;21.63;;
74487;SDS011;63019;51.080;13.642;2022-11-15T01:18:22;41.55;;;21.70;;
74487;SDS011;63019;51.080;13.642;2022-11-15T01:19:23;50.10;;;22.02;;
74487;SDS011;63019;51.080;13.642;2022-11-15T01:20:25;45.15;;;22.02;;
74487;SDS011;63019;51.080;13.642;2022-11-15T01:21:27;43.30;;;20.63;;
74487;SDS011;63019;51.080;13.642;2022-11-15T01:22:29;44.33;;;21.98;;
74487;SDS011;63019;51.080;13.642;2022-11-15T01:23:30;48.92;;;22.13;;
74487;SDS011;63019;51.080;13.642;2022-11-15T01:24:33;44.97;;;21.77;;
74487;SDS011;63019;51.080;13.642;2022-11-15T01:25:34;44.55;;;20.98;;
74487;SDS011;63019;51.080;13.642;2022-11-15T01:26:36;43.85;;;20.98;;
74487;SDS011;63019;51.080;13.642;2022-11-15T01:27:38;44.50;;;21.65;;
74487;SDS011;63019;51.080;13.642;2022-11-15T01:28:40;45.25;;;21.52;;
74487;SDS011;63019;51.080;13.642;2022-11-15T01:29:42;43.45;;;21.60;;
74487;SDS011;63019;51.080;13.642;2022-11-15T01:30:44;45.38;;;21.10;;
74487;SDS011;63019;51.080;13.642;2022-11-15T01:31:46;47.30;;;21.70;;
74487;SDS011;63019;51.080;13.642;2022-11-15T01:32:48;48.40;;;22.60;;
74487;SDS011;63019;51.080;13.642;2022-11-15T01:33:49;46.35;;;21.67;;
74487;SDS011;63019;51.080;13.642;2022-11-15T01:34:51;48.00;;;21.20;;
74487;SDS011;63019;51.080;13.642;2022-11-15T01:35:53;46.63;;;22.17;;
74487;SDS011;63019;51.080;13.642;2022-11-15T01:36:55;45.25;;;21.52;;
74487;SDS011;63019;51.080;13.642;2022-11-15T01:37:57;44.35;;;21.70;;
74487;SDS011;63019;51.080;13.642;2022-11-15T01:38:59;42.92;;;22.13;;
74487;SDS011;63019;51.080;13.642;2022-11-15T01:40:01;49.13;;;22.25;;
74487;SDS011;63019;51.080;13.642;2022-11-15T01:41:03;49.03;;;22.20;;
74487;SDS011;63019;51.080;13.642;2022-11-15T01:42:05;47.97;;;22.13;;
74487;SDS011;63019;51.080;13.642;2022-11-15T01:44:45;44.20;;;21.30;;
74487;SDS011;63019;51.080;13.642;2022-11-15T01:45:51;48.00;;;22.10;;
74487;SDS011;63019;51.080;13.642;2022-11-15T01:46:58;48.37;;;21.83;;
74487;SDS011;63019;51.080;13.642;2022-11-15T01:48:02;47.58;;;21.35;;
74487;SDS011;63019;51.080;13.642;2022-11-15T01:49:05;42.85;;;20.80;;
74487;SDS011;63019;51.080;13.642;2022-11-15T01:50:17;47.97;;;22.85;;
74487;SDS011;63019;51.080;13.642;2022-11-15T01:51:25;53.65;;;23.73;;
74487;SDS011;63019;51.080;13.642;2022-11-15T01:52:30;51.20;;;22.10;;
74487;SDS011;63019;51.080;13.642;2022-11-15T01:53:33;49.40;;;22.70;;
74487;SDS011;63019;51.080;13.642;2022-11-15T01:54:38;51.20;;;22.65;;
74487;SDS011;63019;51.080;13.642;2022-11-15T01:55:40;54.33;;;23.20;;
74487;SDS011;63019;51.080;13.642;2022-11-15T01:56:46;53.93;;;23.47;;
74487;SDS011;63019;51.080;13.642;2022-11-15T01:57:53;49.40;;;22.27;;
74487;SDS011;63019;51.080;13.642;2022-11-15T01:58:58;49.80;;;22.15;;
74487;SDS011;63019;51.080;13.642;2022-11-15T02:00:04;47.35;;;23.23;;
74487;SDS011;63019;51.080;13.642;2022-11-15T02:01:07;55.88;;;22.38;;
74487;SDS011;63019;51.080;13.642;2022-11-15T02:02:09;53.53;;;23.13;;
74487;SDS011;63019;51.080;13.642;2022-11-15T02:03:10;51.25;;;21.17;;
74487;SDS011;63019;51.080;13.642;2022-11-15T02:04:13;52.95;;;21.58;;
74487;SDS011;63019;51.080;13.642;2022-11-15T02:05:36;54.97;;;22.75;;
74487;SDS011;63019;51.080;13.642;2022-11-15T02:06:40;52.00;;;22.95;;
74487;SDS011;63019;51.080;13.642;2022-11-15T02:07:44;53.37;;;23.57;;
74487;SDS011;63019;51.080;13.642;2022-11-15T02:08:46;53.57;;;22.73;;
74487;SDS011;63019;51.080;13.642;2022-11-15T02:09:48;55.45;;;22.63;;
74487;SDS011;63019;51.080;13.642;2022-11-15T02:10:51;48.20;;;21.38;;
74487;SDS011;63019;51.080;13.642;2022-11-15T02:11:53;49.30;;;22.70;;
74487;SDS011;63019;51.080;13.642;2022-11-15T02:12:56;49.60;;;22.83;;
74487;SDS011;63019;51.080;13.642;2022-11-15T02:14:00;50.03;;;21.60;;
74487;SDS011;63019;51.080;13.642;2022-11-15T02:15:04;49.25;;;22.05;;
74487;SDS011;63019;51.080;13.642;2022-11-15T02:18:34;49.57;;;21.57;;
74487;SDS011;63019;51.080;13.642;2022-11-15T02:25:15;48.35;;;21.17;;
74487;SDS011;63019;51.080;13.642;2022-11-15T02:28:06;45.35;;;21.42;;
74487;SDS011;63019;51.080;13.642;2022-11-15T02:33:10;49.83;;;21.77;;
74487;SDS011;63019;51.080;13.642;2022-11-15T02:42:12;47.50;;;20.98;;
74487;SDS011;63019;51.080;13.642;2022-11-15T02:43:45;48.47;;;21.23;;
74487;SDS011;63019;51.080;13.642;2022-11-15T02:45:01;59.67;;;21.60;;
74487;SDS011;63019;51.080;13.642;2022-11-15T02:47:47;46.47;;;20.40;;
74487;SDS011;63019;51.080;13.642;2022-11-15T02:48:51;45.92;;;21.20;;
74487;SDS011;63019;51.080;13.642;2022-11-15T02:49:53;48.75;;;20.83;;
74487;SDS011;63019;51.080;13.642;2022-11-15T02:50:59;51.72;;;21.08;;
74487;SDS011;63019;51.080;13.642;2022-11-15T02:52:01;52.22;;;22.17;;
74487;SDS011;63019;51.080;13.642;2022-11-15T02:53:03;55.13;;;23.48;;
74487;SDS011;63019;51.080;13.642;2022-11-15T02:54:05;56.33;;;23.38;;
74487;SDS011;63019;51.080;13.642;2022-11-15T02:56:28;56.73;;;22.10;;
74487;SDS011;63019;51.080;13.642;2022-11-15T02:59:03;51.97;;;22.45;;
74487;SDS011;63019;51.080;13.642;2022-11-15T03:00:12;56.22;;;22.67;;
74487;SDS011;63019;51.080;13.642;2022-11-15T03:01:26;55.28;;;23.45;;
74487;SDS011;63019;51.080;13.642;2022-11-15T03:02:42;58.42;;;22.30;;
74487;SDS011;63019;51.080;13.642;2022-11-15T03:07:07;56.65;;;22.75;;
74487;SDS011;63019;51.080;13.642;2022-11-15T03:12:04;57.35;;;22.60;;
74487;SDS011;63019;51.080;13.642;2022-11-15T03:13:19;54.28;;;22.73;;
74487;SDS011;63019;51.080;13.642;2022-11-15T03:14:30;55.72;;;23.67;;
74487;SDS011;63019;51.080;13.642;2022-11-15T03:15:43;57.15;;;23.17;;
74487;SDS011;63019;51.080;13.642;2022-11-15T03:17:13;54.35;;;22.52;;
74487;SDS011;63019;51.080;13.642;2022-11-15T03:18:21;52.35;;;21.67;;
74487;SDS011;63019;51.080;13.642;2022-11-15T03:19:41;57.92;;;22.75;;
74487;SDS011;63019;51.080;13.642;2022-11-15T03:20:47;50.75;;;21.83;;
74487;SDS011;63019;51.080;13.642;2022-11-15T03:21:50;53.77;;;22.07;;
74487;SDS011;63019;51.080;13.642;2022-11-15T03:22:54;53.47;;;22.20;;
74487;SDS011;63019;51.080;13.642;2022-11-15T03:24:01;55.03;;;22.70;;
74487;SDS011;63019;51.080;13.642;2022-11-15T03:25:07;45.10;;;20.02;;
74487;SDS011;63019;51.080;13.642;2022-11-15T03:26:12;49.63;;;20.98;;
74487;SDS011;63019;51.080;13.642;2022-11-15T03:27:17;54.42;;;22.50;;
74487;SDS011;63019;51.080;13.642;2022-11-15T03:28:29;53.25;;;22.45;;
74487;SDS011;63019;51.080;13.642;2022-11-15T03:29:37;50.60;;;21.05;;
74487;SDS011;63019;51.080;13.642;2022-11-15T03:30:43;51.95;;;21.70;;
74487;SDS011;63019;51.080;13.642;2022-11-15T03:31:50;54.75;;;21.25;;
74487;SDS011;63019;51.080;13.642;2022-11-15T03:32:56;50.80;;;21.97;;
74487;SDS011;63019;51.080;13.642;2022-11-15T03:34:00;53.17;;;22.27;;
74487;SDS011;63019;51.080;13.642;2022-11-15T03:35:09;55.20;;;22.13;;
74487;SDS011;63019;51.080;13.642;2022-11-15T03:36:19;53.70;;;21.58;;
74487;SDS011;63019;51.080;13.642;2022-11-15T03:37:24;48.00;;;20.73;;
74487;SDS011;63019;51.080;13.642;2022-11-15T03:38:39;49.90;;;21.33;;
74487;SDS011;63019;51.080;13.642;2022-11-15T03:39:42;48.45;;;20.60;;
74487;SDS011;63019;51.080;13.642;2022-11-15T03:41:28;51.17;;;21.42;;
74487;SDS011;63019;51.080;13.642;2022-11-15T03:43:45;49.47;;;20.58;;
74487;SDS011;63019;51.080;13.642;2022-11-15T03:47:03;49.88;;;20.48;;
74487;SDS011;63019;51.080;13.642;2022-11-15T03:48:14;52.05;;;22.20;;
74487;SDS011;63019;51.080;13.642;2022-11-15T03:49:25;54.85;;;21.95;;
74487;SDS011;63019;51.080;13.642;2022-11-15T03:50:30;51.30;;;21.38;;
74487;SDS011;63019;51.080;13.642;2022-11-15T03:51:33;50.25;;;21.50;;
74487;SDS011;63019;51.080;13.642;2022-11-15T03:52:35;46.90;;;20.80;;
74487;SDS011;63019;51.080;13.642;2022-11-15T03:53:38;52.33;;;21.50;;
74487;SDS011;63019;51.080;13.642;2022-11-15T03:54:47;47.13;;;21.38;;
74487;SDS011;63019;51.080;13.642;2022-11-15T03:55:54;51.27;;;20.03;;
74487;SDS011;63019;51.080;13.642;2022-11-15T03:56:55;54.60;;;21.23;;
74487;SDS011;63019;51.080;13.642;2022-11-15T03:57:59;46.28;;;19.95;;
74487;SDS011;63019;51.080;13.642;2022-11-15T03:59:02;44.83;;;19.50;;
74487;SDS011;63019;51.080;13.642;2022-11-15T04:00:04;54.95;;;21.00;;
74487;SDS011;63019;51.080;13.642;2022-11-15T04:01:06;50.33;;;21.10;;
74487;SDS011;63019;51.080;13.642;2022-11-15T04:02:08;49.20;;;20.85;;
74487;SDS011;63019;51.080;13.642;2022-11-15T04:03:10;50.60;;;21.30;;
74487;SDS011;63019;51.080;13.642;2022-11-15T04:04:12;51.25;;;20.58;;
74487;SDS011;63019;51.080;13.642;2022-11-15T04:05:13;44.78;;;20.13;;
74487;SDS011;63019;51.080;13.642;2022-11-15T04:06:15;46.67;;;20.27;;
74487;SDS011;63019;51.080;13.642;2022-11-15T04:07:17;47.57;;;20.73;;
74487;SDS011;63019;51.080;13.642;2022-11-15T04:08:19;53.20;;;21.48;;
74487;SDS011;63019;51.080;13.642;2022-11-15T04:09:21;51.85;;;20.58;;
74487;SDS011;63019;51.080;13.642;2022-11-15T04:10:22;49.20;;;20.08;;
74487;SDS011;63019;51.080;13.642;2022-11-15T04:11:24;52.45;;;20.58;;
74487;SDS011;63019;51.080;13.642;2022-11-15T04:12:26;47.55;;;19.60;;
74487;SDS011;63019;51.080;13.642;2022-11-15T04:13:34;48.42;;;19.67;;
74487;SDS011;63019;51.080;13.642;2022-11-15T04:14:35;45.65;;;19.75;;
74487;SDS011;63019;51.080;13.642;2022-11-15T04:15:37;49.05;;;19.75;;
74487;SDS011;63019;51.080;13.642;2022-11-15T04:16:39;41.50;;;18.90;;
74487;SDS011;63019;51.080;13.642;2022-11-15T04:17:53;49.05;;;19.20;;
74487;SDS011;63019;51.080;13.642;2022-11-15T04:18:57;45.08;;;18.58;;
74487;SDS011;63019;51.080;13.642;2022-11-15T04:20:21;43.78;;;18.73;;
74487;SDS011;63019;51.080;13.642;2022-11-15T04:21:43;45.00;;;18.65;;
74487;SDS011;63019;51.080;13.642;2022-11-15T04:23:06;43.95;;;18.60;;
74487;SDS011;63019;51.080;13.642;2022-11-15T04:24:29;47.42;;;18.33;;
74487;SDS011;63019;51.080;13.642;2022-11-15T04:25:31;48.05;;;19.48;;
74487;SDS011;63019;51.080;13.642;2022-11-15T04:26:32;47.53;;;19.83;;
74487;SDS011;63019;51.080;13.642;2022-11-15T04:27:34;47.40;;;18.58;;
74487;SDS011;63019;51.080;13.642;2022-11-15T04:28:36;47.47;;;19.20;;
74487;SDS011;63019;51.080;13.642;2022-11-15T04:30:01;44.97;;;19.52;;
74487;SDS011;63019;51.080;13.642;2022-11-15T04:31:04;45.72;;;18.77;;
74487;SDS011;63019;51.080;13.642;2022-11-15T04:32:06;43.30;;;17.88;;
74487;SDS011;63019;51.080;13.642;2022-11-15T04:33:08;47.05;;;19.95;;
74487;SDS011;63019;51.080;13.642;2022-11-15T04:34:10;50.13;;;19.67;;
74487;SDS011;63019;51.080;13.642;2022-11-15T04:35:12;50.80;;;19.98;;
74487;SDS011;63019;51.080;13.642;2022-11-15T04:36:14;48.17;;;19.35;;
74487;SDS011;63019;51.080;13.642;2022-11-15T04:37:34;44.03;;;18.80;;
74487;SDS011;63019;51.080;13.642;2022-11-15T04:38:36;44.05;;;18.02;;
74487;SDS011;63019;51.080;13.642;2022-11-15T04:39:38;42.87;;;18.23;;
74487;SDS011;63019;51.080;13.642;2022-11-15T04:40:41;41.13;;;18.10;;
74487;SDS011;63019;51.080;13.642;2022-11-15T04:41:43;44.85;;;18.70;;
74487;SDS011;63019;51.080;13.642;2022-11-15T04:42:45;47.28;;;19.60;;
74487;SDS011;63019;51.080;13.642;2022-11-15T04:43:46;48.30;;;18.77;;
74487;SDS011;63019;51.080;13.642;2022-11-15T04:44:48;49.15;;;19.30;;
74487;SDS011;63019;51.080;13.642;2022-11-15T04:45:50;42.20;;;18.52;;
74487;SDS011;63019;51.080;13.642;2022-11-15T04:46:52;47.38;;;18.80;;
74487;SDS011;63019;51.080;13.642;2022-11-15T04:47:53;42.97;;;17.90;;
74487;SDS011;63019;51.080;13.642;2022-11-15T04:48:55;44.55;;;18.63;;
74487;SDS011;63019;51.080;13.642;2022-11-15T04:49:59;44.37;;;17.87;;
74487;SDS011;63019;51.080;13.642;2022-11-15T04:51:01;46.03;;;19.27;;
74487;SDS011;63019;51.080;13.642;2022-11-15T04:52:03;49.33;;;18.77;;
74487;SDS011;63019;51.080;13.642;2022-11-15T04:53:05;38.78;;;17.13;;
74487;SDS011;63019;51.080;13.642;2022-11-15T04:54:07;42.85;;;19.25;;
74487;SDS011;63019;51.080;13.642;2022-11-15T04:55:09;39.00;;;17.08;;
74487;SDS011;63019;51.080;13.642;2022-11-15T04:56:11;45.08;;;18.65;;
74487;SDS011;63019;51.080;13.642;2022-11-15T04:57:13;42.40;;;18.10;;
74487;SDS011;63019;51.080;13.642;2022-11-15T04:58:15;46.33;;;18.20;;
74487;SDS011;63019;51.080;13.642;2022-11-15T04:59:17;39.60;;;17.85;;
74487;SDS011;63019;51.080;13.642;2022-11-15T05:00:19;38.90;;;17.07;;
74487;SDS011;63019;51.080;13.642;2022-11-15T05:01:21;44.42;;;17.27;;
74487;SDS011;63019;51.080;13.642;2022-11-15T05:02:23;38.72;;;17.25;;
74487;SDS011;63019;51.080;13.642;2022-11-15T05:03:24;40.92;;;17.05;;
74487;SDS011;63019;51.080;13.642;2022-11-15T05:04:45;38.70;;;16.73;;
74487;SDS011;63019;51.080;13.642;2022-11-15T05:05:47;44.47;;;16.67;;
74487;SDS011;63019;51.080;13.642;2022-11-15T05:06:49;43.17;;;17.45;;
74487;SDS011;63019;51.080;13.642;2022-11-15T05:07:52;41.17;;;17.77;;
74487;SDS011;63019;51.080;13.642;2022-11-15T05:08:54;41.42;;;17.05;;
74487;SDS011;63019;51.080;13.642;2022-11-15T05:09:56;42.42;;;17.35;;
74487;SDS011;63019;51.080;13.642;2022-11-15T05:10:58;44.47;;;17.87;;
74487;SDS011;63019;51.080;13.642;2022-11-15T05:11:59;42.47;;;17.15;;
74487;SDS011;63019;51.080;13.642;2022-11-15T05:13:01;39.35;;;16.83;;
74487;SDS011;63019;51.080;13.642;2022-11-15T05:14:03;43.85;;;18.15;;
74487;SDS011;63019;51.080;13.642;2022-11-15T05:15:05;37.80;;;16.77;;
74487;SDS011;63019;51.080;13.642;2022-11-15T05:16:07;38.25;;;17.17;;
74487;SDS011;63019;51.080;13.642;2022-11-15T05:17:09;35.38;;;15.70;;
74487;SDS011;63019;51.080;13.642;2022-11-15T05:18:10;38.28;;;17.30;;
74487;SDS011;63019;51.080;13.642;2022-11-15T05:19:12;41.03;;;17.88;;
74487;SDS011;63019;51.080;13.642;2022-11-15T05:20:14;38.42;;;16.42;;
74487;SDS011;63019;51.080;13.642;2022-11-15T05:21:16;34.20;;;16.47;;
74487;SDS011;63019;51.080;13.642;2022-11-15T05:22:18;41.72;;;16.52;;
74487;SDS011;63019;51.080;13.642;2022-11-15T05:23:20;36.35;;;16.27;;
74487;SDS011;63019;51.080;13.642;2022-11-15T05:24:22;41.83;;;17.38;;
74487;SDS011;63019;51.080;13.642;2022-11-15T05:25:24;37.63;;;16.73;;
74487;SDS011;63019;51.080;13.642;2022-11-15T05:26:26;42.47;;;17.55;;
74487;SDS011;63019;51.080;13.642;2022-11-15T05:27:28;43.17;;;17.60;;
74487;SDS011;63019;51.080;13.642;2022-11-15T05:28:30;44.80;;;17.42;;
74487;SDS011;63019;51.080;13.642;2022-11-15T05:29:36;38.38;;;16.90;;
74487;SDS011;63019;51.080;13.642;2022-11-15T05:31:01;42.92;;;17.00;;
74487;SDS011;63019;51.080;13.642;2022-11-15T05:32:07;38.60;;;15.83;;
74487;SDS011;63019;51.080;13.642;2022-11-15T05:33:10;44.72;;;17.90;;
74487;SDS011;63019;51.080;13.642;2022-11-15T05:34:12;44.13;;;17.40;;
74487;SDS011;63019;51.080;13.642;2022-11-15T05:35:48;41.45;;;16.95;;
74487;SDS011;63019;51.080;13.642;2022-11-15T05:36:43;42.28;;;17.08;;
74487;SDS011;63019;51.080;13.642;2022-11-15T05:37:48;40.63;;;17.70;;
74487;SDS011;63019;51.080;13.642;2022-11-15T05:38:50;44.05;;;17.25;;
74487;SDS011;63019;51.080;13.642;2022-11-15T05:39:52;40.25;;;17.20;;
74487;SDS011;63019;51.080;13.642;2022-11-15T05:40:53;43.40;;;18.10;;
74487;SDS011;63019;51.080;13.642;2022-11-15T05:41:57;41.50;;;18.08;;
74487;SDS011;63019;51.080;13.642;2022-11-15T05:43:11;35.77;;;16.57;;
74487;SDS011;63019;51.080;13.642;2022-11-15T05:44:14;41.58;;;17.40;;
74487;SDS011;63019;51.080;13.642;2022-11-15T05:45:18;39.95;;;16.75;;
74487;SDS011;63019;51.080;13.642;2022-11-15T05:46:27;40.20;;;16.05;;
74487;SDS011;63019;51.080;13.642;2022-11-15T05:47:29;43.60;;;16.95;;
74487;SDS011;63019;51.080;13.642;2022-11-15T05:48:32;37.08;;;15.90;;
74487;SDS011;63019;51.080;13.642;2022-11-15T05:49:37;44.00;;;16.80;;
74487;SDS011;63019;51.080;13.642;2022-11-15T05:50:42;38.17;;;17.08;;
74487;SDS011;63019;51.080;13.642;2022-11-15T05:51:46;37.92;;;15.82;;
74487;SDS011;63019;51.080;13.642;2022-11-15T05:52:49;36.40;;;16.42;;
74487;SDS011;63019;51.080;13.642;2022-11-15T05:53:52;37.50;;;16.17;;
74487;SDS011;63019;51.080;13.642;2022-11-15T05:54:56;39.38;;;15.95;;
74487;SDS011;63019;51.080;13.642;2022-11-15T05:55:58;40.60;;;16.58;;
74487;SDS011;63019;51.080;13.642;2022-11-15T05:57:00;45.10;;;17.63;;
74487;SDS011;63019;51.080;13.642;2022-11-15T05:58:02;37.47;;;15.77;;
74487;SDS011;63019;51.080;13.642;2022-11-15T05:59:04;37.50;;;15.65;;
74487;SDS011;63019;51.080;13.642;2022-11-15T06:00:07;40.65;;;15.93;;
74487;SDS011;63019;51.080;13.642;2022-11-15T06:01:10;37.25;;;16.05;;
74487;SDS011;63019;51.080;13.642;2022-11-15T06:02:12;44.95;;;16.10;;
74487;SDS011;63019;51.080;13.642;2022-11-15T06:03:14;38.80;;;17.05;;
74487;SDS011;63019;51.080;13.642;2022-11-15T06:04:15;43.10;;;16.77;;
74487;SDS011;63019;51.080;13.642;2022-11-15T06:05:17;39.80;;;16.38;;
74487;SDS011;63019;51.080;13.642;2022-11-15T06:06:19;42.42;;;17.40;;
74487;SDS011;63019;51.080;13.642;2022-11-15T06:07:21;44.67;;;17.73;;
74487;SDS011;63019;51.080;13.642;2022-11-15T06:08:22;39.35;;;17.05;;
74487;SDS011;63019;51.080;13.642;2022-11-15T06:09:24;38.30;;;16.52;;
74487;SDS011;63019;51.080;13.642;2022-11-15T06:10:26;39.65;;;16.92;;
74487;SDS011;63019;51.080;13.642;2022-11-15T06:11:28;37.67;;;15.43;;
74487;SDS011;63019;51.080;13.642;2022-11-15T06:12:29;40.38;;;16.60;;
74487;SDS011;63019;51.080;13.642;2022-11-15T06:13:31;45.47;;;17.25;;
74487;SDS011;63019;51.080;13.642;2022-11-15T06:14:34;35.57;;;15.63;;
74487;SDS011;63019;51.080;13.642;2022-11-15T06:15:36;40.55;;;16.98;;
74487;SDS011;63019;51.080;13.642;2022-11-15T06:16:37;37.40;;;16.50;;
74487;SDS011;63019;51.080;13.642;2022-11-15T06:17:39;41.78;;;17.45;;
74487;SDS011;63019;51.080;13.642;2022-11-15T06:18:41;42.30;;;17.23;;
74487;SDS011;63019;51.080;13.642;2022-11-15T06:19:43;36.78;;;16.33;;
74487;SDS011;63019;51.080;13.642;2022-11-15T06:20:44;40.78;;;16.50;;
74487;SDS011;63019;51.080;13.642;2022-11-15T06:21:46;37.75;;;16.60;;
74487;SDS011;63019;51.080;13.642;2022-11-15T06:22:48;37.90;;;16.42;;
74487;SDS011;63019;51.080;13.642;2022-11-15T06:23:50;38.88;;;16.52;;
74487;SDS011;63019;51.080;13.642;2022-11-15T06:24:51;40.63;;;16.80;;
74487;SDS011;63019;51.080;13.642;2022-11-15T06:25:53;40.13;;;16.88;;
74487;SDS011;63019;51.080;13.642;2022-11-15T06:26:58;43.00;;;17.50;;
74487;SDS011;63019;51.080;13.642;2022-11-15T06:28:00;40.22;;;17.02;;
74487;SDS011;63019;51.080;13.642;2022-11-15T06:29:02;42.97;;;17.77;;
74487;SDS011;63019;51.080;13.642;2022-11-15T06:30:05;40.90;;;16.63;;
74487;SDS011;63019;51.080;13.642;2022-11-15T06:31:10;40.33;;;16.48;;
74487;SDS011;63019;51.080;13.642;2022-11-15T06:32:12;40.17;;;17.42;;
74487;SDS011;63019;51.080;13.642;2022-11-15T06:33:14;39.22;;;17.33;;
74487;SDS011;63019;51.080;13.642;2022-11-15T06:34:16;41.25;;;17.65;;
74487;SDS011;63019;51.080;13.642;2022-11-15T06:35:18;39.33;;;16.87;;
74487;SDS011;63019;51.080;13.642;2022-11-15T06:36:19;39.72;;;17.30;;
74487;SDS011;63019;51.080;13.642;2022-11-15T06:37:21;42.20;;;17.17;;
74487;SDS011;63019;51.080;13.642;2022-11-15T06:38:23;44.28;;;18.38;;
74487;SDS011;63019;51.080;13.642;2022-11-15T06:39:25;42.15;;;17.20;;
74487;SDS011;63019;51.080;13.642;2022-11-15T06:40:27;46.38;;;17.13;;
74487;SDS011;63019;51.080;13.642;2022-11-15T06:41:28;38.33;;;16.67;;
74487;SDS011;63019;51.080;13.642;2022-11-15T06:42:30;41.40;;;17.10;;
74487;SDS011;63019;51.080;13.642;2022-11-15T06:43:32;43.72;;;18.35;;
74487;SDS011;63019;51.080;13.642;2022-11-15T06:44:35;48.22;;;17.83;;
74487;SDS011;63019;51.080;13.642;2022-11-15T06:45:37;37.43;;;15.80;;
74487;SDS011;63019;51.080;13.642;2022-11-15T06:46:38;41.17;;;17.13;;
74487;SDS011;63019;51.080;13.642;2022-11-15T06:47:46;42.53;;;17.80;;
74487;SDS011;63019;51.080;13.642;2022-11-15T06:48:50;45.25;;;17.42;;
74487;SDS011;63019;51.080;13.642;2022-11-15T06:49:52;39.88;;;18.15;;